Flight Track Log - Related Links

Times and Time Zones

All times are in EDT time to prevent confusion due to time zone crossing. See the CTL17 flight status page for this flight to view local times or setup timezone preferences in your user account.

Time Position Orientation Groundspeed Altitude Reporting Facility
EDT Latitude Longitude Course Direction KTS MPH feet Rate Location/Type
Tue 03:53:03 PM 42.6633 -83.3983 85° East 113 130 1,300  Level Cleveland Center
Tue 03:54:29 PM 42.6672 -83.3308 85° East 127 146 2,500 837 Climbing Cleveland Center
Tue 03:56:00 PM 42.7095 -83.3751 322° Northwest  Level FlightAware Approximate
Tue 04:03:00 PM 42.9562 -83.4285 321° Northwest  Level FlightAware Approximate
Tue 04:04:00 PM 42.9836 -83.4586 321° Northwest  Level FlightAware Approximate
Tue 04:05:00 PM 43.0110 -83.4888 321° Northwest  Level FlightAware Approximate
Tue 04:06:00 PM 43.0384 -83.5190 321° Northwest  Level FlightAware Approximate
Tue 04:07:00 PM 43.0658 -83.5493 321° Northwest  Level FlightAware Approximate
Tue 04:08:00 PM 43.0931 -83.5796 321° Northwest  Level FlightAware Approximate
Tue 04:09:00 PM 43.1205 -83.6098 321° Northwest  Level FlightAware Approximate
Tue 04:10:00 PM 43.1478 -83.6402 321° Northwest  Level FlightAware Approximate
Tue 04:11:00 PM 43.1752 -83.6705 321° Northwest  Level FlightAware Approximate
Tue 04:12:00 PM 43.2025 -83.7009 321° Northwest  Level FlightAware Approximate
Tue 04:13:00 PM 43.2293 -83.7321 318° Northwest  Level FlightAware Approximate
Tue 04:14:00 PM 43.2556 -83.7642 318° Northwest  Level FlightAware Approximate
Tue 04:15:00 PM 43.2819 -83.7963 318° Northwest  Level FlightAware Approximate
Tue 04:16:00 PM 43.3082 -83.8284 318° Northwest  Level FlightAware Approximate
Tue 04:17:00 PM 43.3345 -83.8606 318° Northwest  Level FlightAware Approximate
Tue 04:18:00 PM 43.3608 -83.8928 318° Northwest  Level FlightAware Approximate
Tue 04:19:00 PM 43.3887 -83.9220 324° Northwest  Level FlightAware Approximate
Tue 04:20:00 PM 43.4172 -83.9505 324° Northwest  Level FlightAware Approximate
Tue 04:21:00 PM 43.4457 -83.9789 324° Northwest  Level FlightAware Approximate
Tue 04:22:00 PM 43.4741 -84.0074 324° Northwest  Level FlightAware Approximate
Tue 04:23:00 PM 43.5018 -84.0370 305° West  Level FlightAware Approximate
Tue 04:24:00 PM 43.5167 -84.0667 305° West  Level FlightAware Approximate

Login

Don't have an account? Register now (free) for customized features, flight alerts, and more!